sensor_id;sensor_type;location;lat;lon;timestamp;P1;durP1;ratioP1;P2;durP2;ratioP2
9465;SDS011;4771;48.726;9.006;2022-09-06T00:01:37;2.95;;;2.72;;
9465;SDS011;4771;48.726;9.006;2022-09-06T00:04:04;4.38;;;2.92;;
9465;SDS011;4771;48.726;9.006;2022-09-06T00:06:31;4.75;;;3.05;;
9465;SDS011;4771;48.726;9.006;2022-09-06T00:08:58;4.60;;;3.08;;
9465;SDS011;4771;48.726;9.006;2022-09-06T00:11:26;3.22;;;2.83;;
9465;SDS011;4771;48.726;9.006;2022-09-06T00:13:53;3.42;;;2.92;;
9465;SDS011;4771;48.726;9.006;2022-09-06T00:16:21;5.35;;;3.13;;
9465;SDS011;4771;48.726;9.006;2022-09-06T00:18:51;4.80;;;3.00;;
9465;SDS011;4771;48.726;9.006;2022-09-06T00:21:20;5.15;;;3.30;;
9465;SDS011;4771;48.726;9.006;2022-09-06T00:23:48;4.03;;;3.00;;
9465;SDS011;4771;48.726;9.006;2022-09-06T00:26:16;3.28;;;2.97;;
9465;SDS011;4771;48.726;9.006;2022-09-06T00:28:44;4.72;;;3.10;;
9465;SDS011;4771;48.726;9.006;2022-09-06T00:31:12;4.88;;;3.47;;
9465;SDS011;4771;48.726;9.006;2022-09-06T00:33:40;7.70;;;3.17;;
9465;SDS011;4771;48.726;9.006;2022-09-06T00:36:07;5.38;;;3.40;;
9465;SDS011;4771;48.726;9.006;2022-09-06T00:38:35;5.13;;;3.53;;
9465;SDS011;4771;48.726;9.006;2022-09-06T00:41:02;8.02;;;3.28;;
9465;SDS011;4771;48.726;9.006;2022-09-06T00:43:30;4.30;;;3.50;;
9465;SDS011;4771;48.726;9.006;2022-09-06T00:45:58;3.88;;;3.42;;
9465;SDS011;4771;48.726;9.006;2022-09-06T00:48:26;4.93;;;3.20;;
9465;SDS011;4771;48.726;9.006;2022-09-06T00:50:54;4.32;;;3.30;;
9465;SDS011;4771;48.726;9.006;2022-09-06T00:53:25;3.75;;;3.42;;
9465;SDS011;4771;48.726;9.006;2022-09-06T00:55:53;6.00;;;3.35;;
9465;SDS011;4771;48.726;9.006;2022-09-06T00:58:21;4.68;;;3.22;;
9465;SDS011;4771;48.726;9.006;2022-09-06T01:00:48;4.95;;;3.50;;
9465;SDS011;4771;48.726;9.006;2022-09-06T01:03:17;5.05;;;3.38;;
9465;SDS011;4771;48.726;9.006;2022-09-06T01:05:48;4.18;;;3.60;;
9465;SDS011;4771;48.726;9.006;2022-09-06T01:08:21;5.50;;;3.30;;
9465;SDS011;4771;48.726;9.006;2022-09-06T01:11:09;8.65;;;3.20;;
9465;SDS011;4771;48.726;9.006;2022-09-06T01:13:53;5.10;;;3.35;;
9465;SDS011;4771;48.726;9.006;2022-09-06T01:16:28;4.60;;;3.28;;
9465;SDS011;4771;48.726;9.006;2022-09-06T01:22:04;5.30;;;3.35;;
9465;SDS011;4771;48.726;9.006;2022-09-06T01:30:32;4.22;;;3.25;;
9465;SDS011;4771;48.726;9.006;2022-09-06T01:33:05;3.75;;;3.45;;
9465;SDS011;4771;48.726;9.006;2022-09-06T01:35:39;4.97;;;3.20;;
9465;SDS011;4771;48.726;9.006;2022-09-06T01:38:09;3.85;;;3.40;;
9465;SDS011;4771;48.726;9.006;2022-09-06T01:40:36;4.38;;;3.38;;
9465;SDS011;4771;48.726;9.006;2022-09-06T01:43:05;3.72;;;3.33;;
9465;SDS011;4771;48.726;9.006;2022-09-06T01:45:38;3.85;;;3.17;;
9465;SDS011;4771;48.726;9.006;2022-09-06T01:48:15;5.38;;;3.47;;
9465;SDS011;4771;48.726;9.006;2022-09-06T01:50:52;6.45;;;3.25;;
9465;SDS011;4771;48.726;9.006;2022-09-06T01:53:29;5.50;;;3.40;;
9465;SDS011;4771;48.726;9.006;2022-09-06T01:56:14;6.78;;;3.67;;
9465;SDS011;4771;48.726;9.006;2022-09-06T01:58:52;5.78;;;3.42;;
9465;SDS011;4771;48.726;9.006;2022-09-06T02:01:41;7.63;;;3.20;;
9465;SDS011;4771;48.726;9.006;2022-09-06T02:04:18;4.78;;;3.35;;
9465;SDS011;4771;48.726;9.006;2022-09-06T02:06:52;6.40;;;3.70;;
9465;SDS011;4771;48.726;9.006;2022-09-06T02:09:24;4.63;;;3.60;;
9465;SDS011;4771;48.726;9.006;2022-09-06T02:11:54;5.70;;;3.40;;
9465;SDS011;4771;48.726;9.006;2022-09-06T02:14:26;5.03;;;3.90;;
9465;SDS011;4771;48.726;9.006;2022-09-06T02:16:57;4.82;;;3.70;;
9465;SDS011;4771;48.726;9.006;2022-09-06T02:19:26;4.60;;;3.72;;
9465;SDS011;4771;48.726;9.006;2022-09-06T02:21:59;4.72;;;3.60;;
9465;SDS011;4771;48.726;9.006;2022-09-06T02:24:31;4.43;;;3.88;;
9465;SDS011;4771;48.726;9.006;2022-09-06T02:27:01;6.80;;;3.40;;
9465;SDS011;4771;48.726;9.006;2022-09-06T02:29:30;5.78;;;3.50;;
9465;SDS011;4771;48.726;9.006;2022-09-06T02:31:58;5.45;;;3.60;;
9465;SDS011;4771;48.726;9.006;2022-09-06T02:34:30;9.18;;;3.60;;
9465;SDS011;4771;48.726;9.006;2022-09-06T02:36:57;9.05;;;4.30;;
9465;SDS011;4771;48.726;9.006;2022-09-06T02:39:25;11.82;;;3.80;;
9465;SDS011;4771;48.726;9.006;2022-09-06T02:41:52;8.77;;;4.28;;
9465;SDS011;4771;48.726;9.006;2022-09-06T02:44:19;5.82;;;3.67;;
9465;SDS011;4771;48.726;9.006;2022-09-06T02:46:47;4.68;;;3.80;;
9465;SDS011;4771;48.726;9.006;2022-09-06T02:49:14;5.53;;;3.83;;
9465;SDS011;4771;48.726;9.006;2022-09-06T02:51:41;8.82;;;4.18;;
9465;SDS011;4771;48.726;9.006;2022-09-06T02:54:08;6.07;;;3.72;;
9465;SDS011;4771;48.726;9.006;2022-09-06T02:56:35;4.28;;;3.72;;
9465;SDS011;4771;48.726;9.006;2022-09-06T02:59:02;7.38;;;4.45;;
9465;SDS011;4771;48.726;9.006;2022-09-06T03:01:29;5.60;;;3.70;;
9465;SDS011;4771;48.726;9.006;2022-09-06T03:03:58;7.32;;;4.05;;
9465;SDS011;4771;48.726;9.006;2022-09-06T03:06:25;8.02;;;3.85;;
9465;SDS011;4771;48.726;9.006;2022-09-06T03:08:51;4.88;;;3.67;;
9465;SDS011;4771;48.726;9.006;2022-09-06T03:11:18;8.30;;;3.78;;
9465;SDS011;4771;48.726;9.006;2022-09-06T03:13:45;6.15;;;3.72;;
9465;SDS011;4771;48.726;9.006;2022-09-06T03:16:12;6.95;;;4.25;;
9465;SDS011;4771;48.726;9.006;2022-09-06T03:18:39;5.95;;;4.13;;
9465;SDS011;4771;48.726;9.006;2022-09-06T03:21:07;7.15;;;4.05;;
9465;SDS011;4771;48.726;9.006;2022-09-06T03:23:34;6.15;;;3.97;;
9465;SDS011;4771;48.726;9.006;2022-09-06T03:26:03;8.50;;;3.92;;
9465;SDS011;4771;48.726;9.006;2022-09-06T03:28:30;6.25;;;3.63;;
9465;SDS011;4771;48.726;9.006;2022-09-06T03:30:57;5.63;;;4.00;;
9465;SDS011;4771;48.726;9.006;2022-09-06T03:33:28;4.60;;;4.07;;
9465;SDS011;4771;48.726;9.006;2022-09-06T03:35:58;5.03;;;3.80;;
9465;SDS011;4771;48.726;9.006;2022-09-06T03:38:28;6.88;;;3.97;;
9465;SDS011;4771;48.726;9.006;2022-09-06T03:40:55;4.70;;;3.70;;
9465;SDS011;4771;48.726;9.006;2022-09-06T03:43:22;5.82;;;4.10;;
9465;SDS011;4771;48.726;9.006;2022-09-06T03:45:51;5.80;;;4.07;;
9465;SDS011;4771;48.726;9.006;2022-09-06T03:48:19;5.72;;;4.25;;
9465;SDS011;4771;48.726;9.006;2022-09-06T03:50:47;4.32;;;3.88;;
9465;SDS011;4771;48.726;9.006;2022-09-06T03:53:16;6.78;;;3.83;;
9465;SDS011;4771;48.726;9.006;2022-09-06T03:55:45;5.97;;;4.13;;
9465;SDS011;4771;48.726;9.006;2022-09-06T03:58:13;4.82;;;3.72;;
9465;SDS011;4771;48.726;9.006;2022-09-06T04:00:41;4.82;;;3.70;;
9465;SDS011;4771;48.726;9.006;2022-09-06T04:03:08;4.43;;;4.03;;
9465;SDS011;4771;48.726;9.006;2022-09-06T04:05:35;5.57;;;3.70;;
9465;SDS011;4771;48.726;9.006;2022-09-06T04:08:02;3.53;;;3.00;;
9465;SDS011;4771;48.726;9.006;2022-09-06T04:10:29;5.70;;;3.78;;
9465;SDS011;4771;48.726;9.006;2022-09-06T04:12:58;5.35;;;3.90;;
9465;SDS011;4771;48.726;9.006;2022-09-06T04:15:25;5.72;;;4.25;;
9465;SDS011;4771;48.726;9.006;2022-09-06T04:17:52;6.75;;;4.25;;
9465;SDS011;4771;48.726;9.006;2022-09-06T04:20:18;5.00;;;3.90;;
9465;SDS011;4771;48.726;9.006;2022-09-06T04:22:45;5.60;;;3.67;;
9465;SDS011;4771;48.726;9.006;2022-09-06T04:25:12;5.28;;;3.85;;
9465;SDS011;4771;48.726;9.006;2022-09-06T04:27:39;5.50;;;3.67;;
9465;SDS011;4771;48.726;9.006;2022-09-06T04:30:08;4.72;;;4.07;;
9465;SDS011;4771;48.726;9.006;2022-09-06T04:32:35;6.47;;;4.10;;
9465;SDS011;4771;48.726;9.006;2022-09-06T04:35:02;6.32;;;4.00;;
9465;SDS011;4771;48.726;9.006;2022-09-06T04:37:30;7.70;;;4.28;;
9465;SDS011;4771;48.726;9.006;2022-09-06T04:39:57;7.32;;;3.80;;
9465;SDS011;4771;48.726;9.006;2022-09-06T04:42:24;4.55;;;3.80;;
9465;SDS011;4771;48.726;9.006;2022-09-06T04:44:51;5.15;;;4.07;;
9465;SDS011;4771;48.726;9.006;2022-09-06T04:47:19;4.78;;;3.67;;
9465;SDS011;4771;48.726;9.006;2022-09-06T04:49:46;4.65;;;3.70;;
9465;SDS011;4771;48.726;9.006;2022-09-06T04:52:13;6.15;;;4.03;;
9465;SDS011;4771;48.726;9.006;2022-09-06T04:54:40;5.38;;;4.20;;
9465;SDS011;4771;48.726;9.006;2022-09-06T04:57:07;6.88;;;3.83;;
9465;SDS011;4771;48.726;9.006;2022-09-06T04:59:34;5.50;;;4.38;;
9465;SDS011;4771;48.726;9.006;2022-09-06T05:02:01;5.97;;;4.35;;
9465;SDS011;4771;48.726;9.006;2022-09-06T05:04:29;7.85;;;4.22;;
9465;SDS011;4771;48.726;9.006;2022-09-06T05:06:59;5.25;;;3.63;;
9465;SDS011;4771;48.726;9.006;2022-09-06T05:09:27;6.30;;;3.92;;
9465;SDS011;4771;48.726;9.006;2022-09-06T05:11:54;4.88;;;4.10;;
9465;SDS011;4771;48.726;9.006;2022-09-06T05:14:21;6.32;;;4.00;;
9465;SDS011;4771;48.726;9.006;2022-09-06T05:16:48;5.95;;;3.63;;
9465;SDS011;4771;48.726;9.006;2022-09-06T05:19:15;4.72;;;3.83;;
9465;SDS011;4771;48.726;9.006;2022-09-06T05:21:44;4.63;;;4.07;;
9465;SDS011;4771;48.726;9.006;2022-09-06T05:24:11;4.40;;;4.00;;
9465;SDS011;4771;48.726;9.006;2022-09-06T05:26:38;7.68;;;4.25;;
9465;SDS011;4771;48.726;9.006;2022-09-06T05:29:05;5.72;;;3.78;;
9465;SDS011;4771;48.726;9.006;2022-09-06T05:31:33;6.40;;;3.85;;
9465;SDS011;4771;48.726;9.006;2022-09-06T05:34:00;5.60;;;3.72;;
9465;SDS011;4771;48.726;9.006;2022-09-06T05:36:28;5.20;;;4.00;;
9465;SDS011;4771;48.726;9.006;2022-09-06T05:38:57;9.90;;;4.38;;
9465;SDS011;4771;48.726;9.006;2022-09-06T05:41:24;5.43;;;3.80;;
9465;SDS011;4771;48.726;9.006;2022-09-06T05:43:52;4.63;;;4.07;;
9465;SDS011;4771;48.726;9.006;2022-09-06T05:46:18;6.55;;;3.63;;
9465;SDS011;4771;48.726;9.006;2022-09-06T05:48:50;5.60;;;4.05;;
9465;SDS011;4771;48.726;9.006;2022-09-06T05:51:18;4.55;;;3.88;;
9465;SDS011;4771;48.726;9.006;2022-09-06T05:53:45;4.70;;;3.70;;
9465;SDS011;4771;48.726;9.006;2022-09-06T05:56:13;6.43;;;4.15;;
9465;SDS011;4771;48.726;9.006;2022-09-06T05:58:40;6.57;;;3.80;;
9465;SDS011;4771;48.726;9.006;2022-09-06T06:01:14;5.10;;;3.50;;
9465;SDS011;4771;48.726;9.006;2022-09-06T06:03:42;4.95;;;3.70;;
9465;SDS011;4771;48.726;9.006;2022-09-06T06:06:15;4.95;;;3.92;;
9465;SDS011;4771;48.726;9.006;2022-09-06T06:08:42;6.05;;;4.05;;
9465;SDS011;4771;48.726;9.006;2022-09-06T06:11:09;4.20;;;3.80;;
9465;SDS011;4771;48.726;9.006;2022-09-06T06:13:38;7.45;;;3.85;;
9465;SDS011;4771;48.726;9.006;2022-09-06T06:16:06;7.32;;;3.95;;
9465;SDS011;4771;48.726;9.006;2022-09-06T06:18:33;5.45;;;4.25;;
9465;SDS011;4771;48.726;9.006;2022-09-06T06:21:07;6.68;;;3.85;;
9465;SDS011;4771;48.726;9.006;2022-09-06T06:23:35;5.68;;;3.92;;
9465;SDS011;4771;48.726;9.006;2022-09-06T06:26:03;6.13;;;4.10;;
9465;SDS011;4771;48.726;9.006;2022-09-06T06:28:30;6.72;;;4.30;;
9465;SDS011;4771;48.726;9.006;2022-09-06T06:30:59;8.20;;;4.35;;
9465;SDS011;4771;48.726;9.006;2022-09-06T06:33:26;7.45;;;4.18;;
9465;SDS011;4771;48.726;9.006;2022-09-06T06:35:56;6.03;;;3.75;;
9465;SDS011;4771;48.726;9.006;2022-09-06T06:38:28;7.00;;;3.58;;
9465;SDS011;4771;48.726;9.006;2022-09-06T06:40:56;7.13;;;3.72;;
9465;SDS011;4771;48.726;9.006;2022-09-06T06:43:23;6.28;;;3.92;;
9465;SDS011;4771;48.726;9.006;2022-09-06T06:45:49;8.65;;;4.13;;
9465;SDS011;4771;48.726;9.006;2022-09-06T06:48:18;8.02;;;4.43;;
9465;SDS011;4771;48.726;9.006;2022-09-06T06:50:45;5.35;;;3.67;;
9465;SDS011;4771;48.726;9.006;2022-09-06T06:53:12;6.07;;;3.78;;
9465;SDS011;4771;48.726;9.006;2022-09-06T06:55:39;4.50;;;3.90;;
9465;SDS011;4771;48.726;9.006;2022-09-06T06:58:11;5.97;;;4.03;;
9465;SDS011;4771;48.726;9.006;2022-09-06T07:00:38;8.25;;;3.88;;
9465;SDS011;4771;48.726;9.006;2022-09-06T07:03:05;5.55;;;4.20;;
9465;SDS011;4771;48.726;9.006;2022-09-06T07:05:34;7.72;;;4.03;;
9465;SDS011;4771;48.726;9.006;2022-09-06T07:08:01;4.13;;;3.70;;
9465;SDS011;4771;48.726;9.006;2022-09-06T07:10:28;5.75;;;3.30;;
9465;SDS011;4771;48.726;9.006;2022-09-06T07:12:55;3.60;;;3.30;;
9465;SDS011;4771;48.726;9.006;2022-09-06T07:15:22;7.18;;;3.80;;
9465;SDS011;4771;48.726;9.006;2022-09-06T07:17:49;5.93;;;3.50;;
9465;SDS011;4771;48.726;9.006;2022-09-06T07:20:17;4.20;;;3.70;;
9465;SDS011;4771;48.726;9.006;2022-09-06T07:22:46;7.07;;;3.58;;
9465;SDS011;4771;48.726;9.006;2022-09-06T07:25:24;7.20;;;3.30;;
9465;SDS011;4771;48.726;9.006;2022-09-06T07:27:55;4.55;;;3.38;;
9465;SDS011;4771;48.726;9.006;2022-09-06T07:30:23;4.53;;;3.15;;
9465;SDS011;4771;48.726;9.006;2022-09-06T07:32:50;5.85;;;3.70;;
9465;SDS011;4771;48.726;9.006;2022-09-06T07:35:17;4.80;;;3.20;;
9465;SDS011;4771;48.726;9.006;2022-09-06T07:37:53;4.32;;;3.47;;
9465;SDS011;4771;48.726;9.006;2022-09-06T07:40:21;6.18;;;3.47;;
9465;SDS011;4771;48.726;9.006;2022-09-06T07:42:48;6.68;;;3.80;;
9465;SDS011;4771;48.726;9.006;2022-09-06T07:45:15;5.13;;;3.85;;
9465;SDS011;4771;48.726;9.006;2022-09-06T07:47:42;6.90;;;3.10;;
9465;SDS011;4771;48.726;9.006;2022-09-06T07:50:09;4.82;;;3.30;;
9465;SDS011;4771;48.726;9.006;2022-09-06T07:52:36;4.20;;;3.40;;
9465;SDS011;4771;48.726;9.006;2022-09-06T07:55:05;4.45;;;3.15;;
9465;SDS011;4771;48.726;9.006;2022-09-06T07:57:33;6.60;;;3.40;;
9465;SDS011;4771;48.726;9.006;2022-09-06T08:00:00;7.85;;;3.85;;
9465;SDS011;4771;48.726;9.006;2022-09-06T08:02:27;6.28;;;3.50;;
9465;SDS011;4771;48.726;9.006;2022-09-06T08:04:55;7.55;;;3.40;;
9465;SDS011;4771;48.726;9.006;2022-09-06T08:07:22;4.70;;;2.83;;
9465;SDS011;4771;48.726;9.006;2022-09-06T08:09:49;5.70;;;3.30;;
9465;SDS011;4771;48.726;9.006;2022-09-06T08:12:17;5.65;;;3.13;;
9465;SDS011;4771;48.726;9.006;2022-09-06T08:14:44;8.02;;;3.65;;
9465;SDS011;4771;48.726;9.006;2022-09-06T08:17:11;9.10;;;3.20;;
9465;SDS011;4771;48.726;9.006;2022-09-06T08:19:38;7.82;;;2.95;;
9465;SDS011;4771;48.726;9.006;2022-09-06T08:22:05;3.78;;;3.03;;
9465;SDS011;4771;48.726;9.006;2022-09-06T08:24:32;7.57;;;3.35;;
9465;SDS011;4771;48.726;9.006;2022-09-06T08:27:00;7.18;;;3.53;;
9465;SDS011;4771;48.726;9.006;2022-09-06T08:29:29;7.65;;;3.20;;
9465;SDS011;4771;48.726;9.006;2022-09-06T08:31:55;4.85;;;2.97;;
9465;SDS011;4771;48.726;9.006;2022-09-06T08:34:22;4.57;;;3.00;;
9465;SDS011;4771;48.726;9.006;2022-09-06T08:36:49;4.55;;;2.67;;
9465;SDS011;4771;48.726;9.006;2022-09-06T08:39:16;5.32;;;3.03;;
9465;SDS011;4771;48.726;9.006;2022-09-06T08:41:45;5.38;;;3.00;;
9465;SDS011;4771;48.726;9.006;2022-09-06T08:44:16;4.38;;;2.63;;
9465;SDS011;4771;48.726;9.006;2022-09-06T08:46:49;6.75;;;3.33;;
9465;SDS011;4771;48.726;9.006;2022-09-06T08:49:20;7.20;;;2.70;;
9465;SDS011;4771;48.726;9.006;2022-09-06T08:51:51;6.43;;;2.67;;
9465;SDS011;4771;48.726;9.006;2022-09-06T08:54:33;6.75;;;2.80;;
9465;SDS011;4771;48.726;9.006;2022-09-06T08:57:07;5.82;;;3.15;;
9465;SDS011;4771;48.726;9.006;2022-09-06T08:59:40;8.75;;;3.88;;
9465;SDS011;4771;48.726;9.006;2022-09-06T09:02:13;6.95;;;2.92;;
9465;SDS011;4771;48.726;9.006;2022-09-06T09:04:43;7.50;;;2.85;;
9465;SDS011;4771;48.726;9.006;2022-09-06T09:07:19;7.05;;;2.72;;
9465;SDS011;4771;48.726;9.006;2022-09-06T09:09:57;6.95;;;2.78;;
9465;SDS011;4771;48.726;9.006;2022-09-06T09:12:26;5.78;;;2.80;;
9465;SDS011;4771;48.726;9.006;2022-09-06T09:14:59;8.75;;;3.20;;
9465;SDS011;4771;48.726;9.006;2022-09-06T09:17:32;8.65;;;2.70;;
9465;SDS011;4771;48.726;9.006;2022-09-06T09:20:01;4.72;;;2.70;;
9465;SDS011;4771;48.726;9.006;2022-09-06T09:22:28;5.28;;;2.72;;
9465;SDS011;4771;48.726;9.006;2022-09-06T09:24:56;6.43;;;3.03;;
9465;SDS011;4771;48.726;9.006;2022-09-06T09:27:24;7.40;;;3.00;;
9465;SDS011;4771;48.726;9.006;2022-09-06T09:29:57;8.77;;;3.00;;
9465;SDS011;4771;48.726;9.006;2022-09-06T09:32:29;8.77;;;3.25;;
9465;SDS011;4771;48.726;9.006;2022-09-06T09:35:15;9.07;;;2.97;;
9465;SDS011;4771;48.726;9.006;2022-09-06T09:37:45;11.02;;;3.10;;
9465;SDS011;4771;48.726;9.006;2022-09-06T09:40:14;8.45;;;2.97;;
9465;SDS011;4771;48.726;9.006;2022-09-06T09:42:43;8.38;;;3.05;;
9465;SDS011;4771;48.726;9.006;2022-09-06T09:45:22;8.70;;;3.00;;
9465;SDS011;4771;48.726;9.006;2022-09-06T09:47:52;5.93;;;2.83;;
9465;SDS011;4771;48.726;9.006;2022-09-06T09:50:24;7.90;;;2.70;;
9465;SDS011;4771;48.726;9.006;2022-09-06T09:52:53;6.75;;;2.83;;
9465;SDS011;4771;48.726;9.006;2022-09-06T09:55:20;5.10;;;2.65;;
9465;SDS011;4771;48.726;9.006;2022-09-06T09:57:50;7.28;;;2.67;;
9465;SDS011;4771;48.726;9.006;2022-09-06T10:00:34;7.10;;;2.92;;
9465;SDS011;4771;48.726;9.006;2022-09-06T10:03:11;9.13;;;2.90;;
9465;SDS011;4771;48.726;9.006;2022-09-06T10:05:39;7.53;;;2.90;;
9465;SDS011;4771;48.726;9.006;2022-09-06T10:08:08;6.35;;;2.65;;
9465;SDS011;4771;48.726;9.006;2022-09-06T10:10:38;4.90;;;2.95;;
9465;SDS011;4771;48.726;9.006;2022-09-06T10:13:07;8.40;;;3.13;;
9465;SDS011;4771;48.726;9.006;2022-09-06T10:15:39;5.15;;;2.88;;
9465;SDS011;4771;48.726;9.006;2022-09-06T10:18:13;9.52;;;3.30;;
9465;SDS011;4771;48.726;9.006;2022-09-06T10:20:44;8.38;;;3.05;;
9465;SDS011;4771;48.726;9.006;2022-09-06T10:23:18;7.07;;;3.17;;
9465;SDS011;4771;48.726;9.006;2022-09-06T10:25:56;7.85;;;3.15;;
9465;SDS011;4771;48.726;9.006;2022-09-06T10:28:33;7.93;;;3.05;;
9465;SDS011;4771;48.726;9.006;2022-09-06T10:34:11;6.82;;;3.22;;
9465;SDS011;4771;48.726;9.006;2022-09-06T10:37:01;10.18;;;2.70;;
9465;SDS011;4771;48.726;9.006;2022-09-06T10:39:37;7.63;;;3.00;;
9465;SDS011;4771;48.726;9.006;2022-09-06T10:42:15;5.05;;;2.80;;
9465;SDS011;4771;48.726;9.006;2022-09-06T10:44:57;8.45;;;2.88;;
9465;SDS011;4771;48.726;9.006;2022-09-06T10:47:56;10.05;;;3.45;;
9465;SDS011;4771;48.726;9.006;2022-09-06T10:50:30;9.35;;;3.20;;
9465;SDS011;4771;48.726;9.006;2022-09-06T10:53:05;10.63;;;3.30;;
9465;SDS011;4771;48.726;9.006;2022-09-06T10:55:36;9.00;;;3.40;;
9465;SDS011;4771;48.726;9.006;2022-09-06T10:58:05;11.10;;;3.10;;
9465;SDS011;4771;48.726;9.006;2022-09-06T11:00:38;8.20;;;3.17;;
9465;SDS011;4771;48.726;9.006;2022-09-06T11:03:12;9.35;;;3.05;;
9465;SDS011;4771;48.726;9.006;2022-09-06T11:05:51;10.48;;;3.17;;
9465;SDS011;4771;48.726;9.006;2022-09-06T11:08:20;8.60;;;2.95;;
9465;SDS011;4771;48.726;9.006;2022-09-06T11:10:50;9.60;;;3.72;;
9465;SDS011;4771;48.726;9.006;2022-09-06T11:13:21;8.65;;;2.88;;
9465;SDS011;4771;48.726;9.006;2022-09-06T11:15:50;7.57;;;2.92;;
9465;SDS011;4771;48.726;9.006;2022-09-06T11:18:22;9.40;;;3.08;;
9465;SDS011;4771;48.726;9.006;2022-09-06T11:20:56;11.02;;;3.08;;
9465;SDS011;4771;48.726;9.006;2022-09-06T11:23:45;10.85;;;3.17;;
9465;SDS011;4771;48.726;9.006;2022-09-06T11:26:28;10.52;;;2.67;;
9465;SDS011;4771;48.726;9.006;2022-09-06T11:28:58;9.05;;;3.10;;
9465;SDS011;4771;48.726;9.006;2022-09-06T11:31:28;9.30;;;2.55;;
9465;SDS011;4771;48.726;9.006;2022-09-06T11:34:00;8.45;;;2.65;;
9465;SDS011;4771;48.726;9.006;2022-09-06T11:36:34;8.90;;;3.00;;
9465;SDS011;4771;48.726;9.006;2022-09-06T11:39:03;12.55;;;2.97;;
9465;SDS011;4771;48.726;9.006;2022-09-06T11:41:32;8.27;;;2.33;;
9465;SDS011;4771;48.726;9.006;2022-09-06T11:44:02;7.72;;;2.83;;
9465;SDS011;4771;48.726;9.006;2022-09-06T11:49:36;9.50;;;2.70;;
9465;SDS011;4771;48.726;9.006;2022-09-06T11:55:09;6.80;;;2.55;;
9465;SDS011;4771;48.726;9.006;2022-09-06T11:57:37;8.68;;;2.50;;
9465;SDS011;4771;48.726;9.006;2022-09-06T12:00:06;10.15;;;2.50;;
9465;SDS011;4771;48.726;9.006;2022-09-06T12:02:44;7.68;;;2.90;;
9465;SDS011;4771;48.726;9.006;2022-09-06T12:05:24;7.63;;;2.28;;
9465;SDS011;4771;48.726;9.006;2022-09-06T12:11:04;7.70;;;2.58;;
9465;SDS011;4771;48.726;9.006;2022-09-06T12:13:47;6.18;;;3.15;;
9465;SDS011;4771;48.726;9.006;2022-09-06T12:16:19;10.43;;;2.70;;
9465;SDS011;4771;48.726;9.006;2022-09-06T12:18:56;11.27;;;2.50;;
9465;SDS011;4771;48.726;9.006;2022-09-06T12:21:32;6.32;;;2.30;;
9465;SDS011;4771;48.726;9.006;2022-09-06T12:24:05;8.32;;;2.45;;
9465;SDS011;4771;48.726;9.006;2022-09-06T12:26:49;5.60;;;2.13;;
9465;SDS011;4771;48.726;9.006;2022-09-06T12:29:21;7.60;;;2.50;;
9465;SDS011;4771;48.726;9.006;2022-09-06T12:31:50;6.60;;;2.22;;
9465;SDS011;4771;48.726;9.006;2022-09-06T12:34:20;8.35;;;2.53;;
9465;SDS011;4771;48.726;9.006;2022-09-06T12:36:50;6.72;;;2.00;;
9465;SDS011;4771;48.726;9.006;2022-09-06T12:39:20;4.68;;;2.08;;
9465;SDS011;4771;48.726;9.006;2022-09-06T12:41:48;6.45;;;2.10;;
9465;SDS011;4771;48.726;9.006;2022-09-06T12:44:21;8.60;;;2.20;;
9465;SDS011;4771;48.726;9.006;2022-09-06T12:46:54;7.65;;;2.58;;
9465;SDS011;4771;48.726;9.006;2022-09-06T12:49:29;6.88;;;2.58;;
9465;SDS011;4771;48.726;9.006;2022-09-06T12:52:07;4.90;;;2.25;;
9465;SDS011;4771;48.726;9.006;2022-09-06T12:54:43;7.47;;;2.40;;
9465;SDS011;4771;48.726;9.006;2022-09-06T12:57:16;6.53;;;2.63;;
9465;SDS011;4771;48.726;9.006;2022-09-06T12:59:51;6.25;;;2.60;;
9465;SDS011;4771;48.726;9.006;2022-09-06T13:02:20;6.22;;;2.88;;
9465;SDS011;4771;48.726;9.006;2022-09-06T13:04:58;5.20;;;2.40;;
9465;SDS011;4771;48.726;9.006;2022-09-06T13:07:29;7.30;;;2.53;;
9465;SDS011;4771;48.726;9.006;2022-09-06T13:09:59;7.00;;;2.20;;
9465;SDS011;4771;48.726;9.006;2022-09-06T13:12:30;8.90;;;2.75;;
9465;SDS011;4771;48.726;9.006;2022-09-06T13:14:59;23.02;;;5.15;;
9465;SDS011;4771;48.726;9.006;2022-09-06T13:17:29;16.73;;;4.63;;
9465;SDS011;4771;48.726;9.006;2022-09-06T13:19:56;11.63;;;3.65;;
9465;SDS011;4771;48.726;9.006;2022-09-06T13:22:36;11.05;;;3.47;;
9465;SDS011;4771;48.726;9.006;2022-09-06T13:25:15;9.25;;;2.88;;
9465;SDS011;4771;48.726;9.006;2022-09-06T13:27:49;10.13;;;2.95;;
9465;SDS011;4771;48.726;9.006;2022-09-06T13:30:28;5.20;;;2.50;;
9465;SDS011;4771;48.726;9.006;2022-09-06T13:33:01;6.30;;;2.35;;
9465;SDS011;4771;48.726;9.006;2022-09-06T13:35:30;7.55;;;2.25;;
9465;SDS011;4771;48.726;9.006;2022-09-06T13:40:45;10.20;;;2.70;;
9465;SDS011;4771;48.726;9.006;2022-09-06T13:43:16;5.80;;;2.97;;
9465;SDS011;4771;48.726;9.006;2022-09-06T13:45:48;7.80;;;2.88;;
9465;SDS011;4771;48.726;9.006;2022-09-06T13:48:15;6.68;;;2.75;;
9465;SDS011;4771;48.726;9.006;2022-09-06T13:50:41;11.52;;;3.20;;
9465;SDS011;4771;48.726;9.006;2022-09-06T13:53:08;7.85;;;2.58;;
9465;SDS011;4771;48.726;9.006;2022-09-06T13:55:36;8.27;;;2.95;;
9465;SDS011;4771;48.726;9.006;2022-09-06T13:58:04;5.85;;;3.17;;
9465;SDS011;4771;48.726;9.006;2022-09-06T14:00:32;7.03;;;3.50;;
9465;SDS011;4771;48.726;9.006;2022-09-06T14:02:59;8.60;;;3.05;;
9465;SDS011;4771;48.726;9.006;2022-09-06T14:05:26;7.47;;;3.03;;
9465;SDS011;4771;48.726;9.006;2022-09-06T14:07:53;9.07;;;3.08;;
9465;SDS011;4771;48.726;9.006;2022-09-06T14:10:19;8.10;;;3.40;;
9465;SDS011;4771;48.726;9.006;2022-09-06T14:12:48;7.47;;;2.42;;
9465;SDS011;4771;48.726;9.006;2022-09-06T14:15:15;6.43;;;2.67;;
9465;SDS011;4771;48.726;9.006;2022-09-06T14:17:43;6.75;;;2.60;;
9465;SDS011;4771;48.726;9.006;2022-09-06T14:20:11;7.22;;;2.30;;
9465;SDS011;4771;48.726;9.006;2022-09-06T14:22:38;5.80;;;2.40;;
9465;SDS011;4771;48.726;9.006;2022-09-06T14:25:05;4.57;;;2.38;;
9465;SDS011;4771;48.726;9.006;2022-09-06T14:27:33;6.05;;;2.55;;
9465;SDS011;4771;48.726;9.006;2022-09-06T14:30:00;7.40;;;2.35;;
9465;SDS011;4771;48.726;9.006;2022-09-06T14:32:27;4.43;;;1.75;;
9465;SDS011;4771;48.726;9.006;2022-09-06T14:34:55;5.93;;;2.38;;
9465;SDS011;4771;48.726;9.006;2022-09-06T14:37:22;5.50;;;2.10;;
9465;SDS011;4771;48.726;9.006;2022-09-06T14:39:49;3.45;;;1.90;;
9465;SDS011;4771;48.726;9.006;2022-09-06T14:42:16;4.07;;;1.70;;
9465;SDS011;4771;48.726;9.006;2022-09-06T14:44:43;4.63;;;1.60;;
9465;SDS011;4771;48.726;9.006;2022-09-06T14:47:10;3.30;;;1.65;;
9465;SDS011;4771;48.726;9.006;2022-09-06T14:49:37;7.25;;;1.80;;
9465;SDS011;4771;48.726;9.006;2022-09-06T14:52:05;3.55;;;1.40;;
9465;SDS011;4771;48.726;9.006;2022-09-06T14:54:32;4.38;;;1.58;;
9465;SDS011;4771;48.726;9.006;2022-09-06T14:57:00;2.78;;;1.52;;
9465;SDS011;4771;48.726;9.006;2022-09-06T14:59:27;3.65;;;1.80;;
9465;SDS011;4771;48.726;9.006;2022-09-06T15:01:54;4.13;;;1.75;;
9465;SDS011;4771;48.726;9.006;2022-09-06T15:04:21;3.78;;;1.60;;
9465;SDS011;4771;48.726;9.006;2022-09-06T15:06:50;4.40;;;1.52;;
9465;SDS011;4771;48.726;9.006;2022-09-06T15:09:19;5.55;;;1.60;;
9465;SDS011;4771;48.726;9.006;2022-09-06T15:11:47;3.90;;;1.45;;
9465;SDS011;4771;48.726;9.006;2022-09-06T15:14:16;4.80;;;1.60;;
9465;SDS011;4771;48.726;9.006;2022-09-06T15:16:44;3.10;;;1.55;;
9465;SDS011;4771;48.726;9.006;2022-09-06T15:19:12;3.10;;;1.60;;
9465;SDS011;4771;48.726;9.006;2022-09-06T15:21:39;2.45;;;1.27;;
9465;SDS011;4771;48.726;9.006;2022-09-06T15:24:07;1.67;;;1.17;;
9465;SDS011;4771;48.726;9.006;2022-09-06T15:26:35;3.10;;;1.42;;
9465;SDS011;4771;48.726;9.006;2022-09-06T15:29:03;3.47;;;1.45;;
9465;SDS011;4771;48.726;9.006;2022-09-06T15:31:31;3.20;;;1.30;;
9465;SDS011;4771;48.726;9.006;2022-09-06T15:33:59;4.10;;;1.52;;
9465;SDS011;4771;48.726;9.006;2022-09-06T15:36:26;3.40;;;1.55;;
9465;SDS011;4771;48.726;9.006;2022-09-06T15:38:54;2.78;;;1.58;;
9465;SDS011;4771;48.726;9.006;2022-09-06T15:41:24;3.05;;;1.90;;
9465;SDS011;4771;48.726;9.006;2022-09-06T15:43:55;3.45;;;1.80;;
9465;SDS011;4771;48.726;9.006;2022-09-06T15:46:37;3.90;;;1.55;;
9465;SDS011;4771;48.726;9.006;2022-09-06T15:49:08;3.95;;;1.88;;
9465;SDS011;4771;48.726;9.006;2022-09-06T15:51:36;2.85;;;1.83;;
9465;SDS011;4771;48.726;9.006;2022-09-06T15:54:07;2.40;;;1.50;;
9465;SDS011;4771;48.726;9.006;2022-09-06T15:56:35;3.47;;;1.25;;